Time;durP1;ratioP1;P1;durP2;ratioP2;P2;SDS_P1;SDS_P2;PMS_P1;PMS_P2;Temp;Humidity;BMP_temperature;BMP_pressure;BME280_temperature;BME280_humidity;BME280_pressure;Samples;Min_cycle;Max_cycle;Signal;HPM_P1;HPM_P2
2021/08/24 00:04:40;;;;;;;8.9;5;;;;;;;15.58;100;98496.89;;;;
2021/08/24 00:14:39;;;;;;;11.7;6.1;;;;;;;15.78;100;98484.28;;;;
2021/08/24 00:24:39;;;;;;;12.5;5.7;;;;;;;15.92;100;98481.98;;;;
2021/08/24 00:34:39;;;;;;;5.9;4.3;;;;;;;16.07;100;98478.51;;;;
2021/08/24 00:44:38;;;;;;;13;8.4;;;;;;;16.11;100;98474.77;;;;
2021/08/24 00:54:38;;;;;;;7.5;6.7;;;;;;;16.1;100;98483.28;;;;
2021/08/24 01:04:38;;;;;;;9.7;6.4;;;;;;;16.25;100;98477.08;;;;
2021/08/24 01:14:38;;;;;;;7.7;5.4;;;;;;;16.31;100;98491.23;;;;
2021/08/24 01:24:37;;;;;;;9.5;6.1;;;;;;;16.34;100;98482.38;;;;
2021/08/24 01:34:37;;;;;;;8.6;5.3;;;;;;;16.42;100;98484.13;;;;
2021/08/24 01:44:37;;;;;;;9.8;6.5;;;;;;;16.39;100;98482.91;;;;
2021/08/24 01:54:38;;;;;;;9.7;6.5;;;;;;;16.33;100;98484.3;;;;
2021/08/24 02:04:37;;;;;;;10;6.8;;;;;;;16.36;100;98482.81;;;;
2021/08/24 02:14:36;;;;;;;10.1;6.9;;;;;;;16.34;100;98476.94;;;;
2021/08/24 02:24:36;;;;;;;10.9;7.8;;;;;;;16.29;100;98469.81;;;;
2021/08/24 02:34:36;;;;;;;13.1;7.8;;;;;;;16.22;100;98456.02;;;;
2021/08/24 02:44:36;;;;;;;15.8;10.6;;;;;;;16.07;100;98459.48;;;;
2021/08/24 02:54:35;;;;;;;13.5;9;;;;;;;16.17;100;98447.33;;;;
2021/08/24 03:04:35;;;;;;;17.6;11.4;;;;;;;16.26;100;98450.67;;;;
2021/08/24 03:14:35;;;;;;;34.2;13.1;;;;;;;16.22;100;98447.86;;;;
2021/08/24 03:24:34;;;;;;;19.1;13.4;;;;;;;16.18;100;98449.69;;;;
2021/08/24 03:34:34;;;;;;;17.4;14.8;;;;;;;16.15;100;98450.39;;;;
2021/08/24 03:44:34;;;;;;;22.5;16.7;;;;;;;16.24;100;98466.56;;;;
2021/08/24 03:54:34;;;;;;;22.4;16.3;;;;;;;16.22;100;98466.9;;;;
2021/08/24 04:04:33;;;;;;;21.8;17.4;;;;;;;16.16;100;98483.81;;;;
2021/08/24 04:14:33;;;;;;;22.1;16.2;;;;;;;16.12;100;98500.02;;;;
2021/08/24 04:24:33;;;;;;;19.5;14.1;;;;;;;16.13;100;98498.9;;;;
2021/08/24 04:34:33;;;;;;;16.7;13.8;;;;;;;16.08;100;98510.8;;;;
2021/08/24 04:44:32;;;;;;;12.5;10.3;;;;;;;16.15;100;98521.08;;;;
2021/08/24 04:54:33;;;;;;;12.9;11.2;;;;;;;16.21;100;98521.65;;;;
2021/08/24 05:04:32;;;;;;;14.9;11.8;;;;;;;16.23;100;98541.12;;;;
2021/08/24 05:14:32;;;;;;;14.1;10.6;;;;;;;16.17;100;98547.94;;;;
2021/08/24 05:24:32;;;;;;;17;11.9;;;;;;;15.99;100;98561.81;;;;
2021/08/24 05:34:31;;;;;;;15.3;12.9;;;;;;;16.08;100;98558.94;;;;
2021/08/24 05:44:31;;;;;;;16.6;12.9;;;;;;;16.15;100;98569.23;;;;
2021/08/24 05:54:31;;;;;;;21.5;18.1;;;;;;;16.13;100;98569.59;;;;
2021/08/24 06:04:31;;;;;;;18.8;16.8;;;;;;;16.13;100;98575.03;;;;
2021/08/24 06:14:30;;;;;;;19.3;17.2;;;;;;;16.24;100;98583.5;;;;
2021/08/24 06:24:30;;;;;;;20.8;15.4;;;;;;;16.13;100;98582.39;;;;
2021/08/24 06:34:30;;;;;;;29.6;18;;;;;;;16.18;100;98593.02;;;;
2021/08/24 06:44:30;;;;;;;16.3;14.6;;;;;;;16.21;100;98595.07;;;;
2021/08/24 06:54:29;;;;;;;17.7;15.7;;;;;;;16.25;100;98593.22;;;;
2021/08/24 07:04:29;;;;;;;25.5;17;;;;;;;16.25;100;98602.17;;;;
2021/08/24 07:14:29;;;;;;;12.1;8;;;;;;;16.01;100;98623.97;;;;
2021/08/24 07:24:29;;;;;;;4.9;3.5;;;;;;;16;100;98627.84;;;;
2021/08/24 07:34:29;;;;;;;2.7;1.4;;;;;;;16.1;100;98632.81;;;;
2021/08/24 07:54:28;;;;;;;4;0.9;;;;;;;16.34;100;98657.25;;;;
2021/08/24 08:04:28;;;;;;;0.8;0.3;;;;;;;16.14;100;98663.6;;;;
2021/08/24 08:14:28;;;;;;;1.8;0.6;;;;;;;16.06;100;98680.84;;;;
2021/08/24 08:24:27;;;;;;;0.9;0.4;;;;;;;15.69;100;98692.85;;;;
2021/08/24 08:34:27;;;;;;;1.2;0.4;;;;;;;15.56;100;98706.4;;;;
2021/08/24 08:44:27;;;;;;;0.6;0.2;;;;;;;15.34;100;98725.77;;;;
2021/08/24 08:54:27;;;;;;;1.1;0.5;;;;;;;15.59;100;98735.61;;;;
2021/08/24 09:04:26;;;;;;;2.1;0.5;;;;;;;15.22;100;98741.23;;;;
2021/08/24 09:14:26;;;;;;;2.4;0.7;;;;;;;14.71;100;98756.04;;;;
2021/08/24 09:24:26;;;;;;;1.1;0.5;;;;;;;14.63;100;98768.53;;;;
2021/08/24 09:34:25;;;;;;;1.6;0.5;;;;;;;14.67;100;98787.66;;;;
2021/08/24 09:44:30;;;;;;;1.3;0.5;;;;;;;14.41;100;98791.3;;;;
2021/08/24 09:54:39;;;;;;;1.3;0.8;;;;;;;14.3;100;98800.13;;;;
2021/08/24 10:14:24;;;;;;;1.6;0.6;;;;;;;14.42;100;98825.45;;;;
2021/08/24 10:24:23;;;;;;;2.8;0.5;;;;;;;14.63;100;98841.77;;;;
2021/08/24 10:34:23;;;;;;;1.6;0.5;;;;;;;14.61;100;98847.52;;;;
2021/08/24 10:44:23;;;;;;;2.4;1.1;;;;;;;14.69;100;98862.16;;;;
2021/08/24 10:54:22;;;;;;;4.5;1.5;;;;;;;14.48;100;98883;;;;
2021/08/24 11:04:30;;;;;;;2.9;1.3;;;;;;;14.19;100;98891.86;;;;
2021/08/24 11:14:21;;;;;;;4.5;1.6;;;;;;;14.52;100;98890.17;;;;
2021/08/24 11:24:21;;;;;;;3.6;1.5;;;;;;;14.13;100;98912.91;;;;
2021/08/24 11:34:21;;;;;;;4.6;1.8;;;;;;;13.66;100;98932.09;;;;
2021/08/24 11:44:20;;;;;;;3.1;1.6;;;;;;;13.53;100;98940.07;;;;
2021/08/24 11:54:20;;;;;;;2.3;1.6;;;;;;;13.43;100;98962.02;;;;
2021/08/24 12:04:19;;;;;;;3.1;1.6;;;;;;;13.57;100;98980.86;;;;
2021/08/24 12:14:27;;;;;;;2.5;1.2;;;;;;;13.82;100;98993.59;;;;
2021/08/24 12:24:18;;;;;;;2.5;0.9;;;;;;;13.84;100;99010.34;;;;
2021/08/24 12:34:18;;;;;;;4.3;2;;;;;;;14.07;100;99021.81;;;;
2021/08/24 12:44:17;;;;;;;3.2;1.6;;;;;;;14.36;100;99038.27;;;;
2021/08/24 12:54:17;;;;;;;3.2;1.9;;;;;;;14.49;100;99053.55;;;;
2021/08/24 13:04:16;;;;;;;8.7;3;;;;;;;14.88;100;99062.56;;;;
2021/08/24 13:24:18;;;;;;;4;1.9;;;;;;;14.95;100;99085.38;;;;
2021/08/24 13:34:20;;;;;;;3;1.6;;;;;;;15.15;100;99094.73;;;;
2021/08/24 13:44:16;;;;;;;11.4;2.3;;;;;;;14.95;100;99117.95;;;;
2021/08/24 13:54:15;;;;;;;4.8;2.1;;;;;;;14.92;100;99120.52;;;;
2021/08/24 14:04:19;;;;;;;2.6;1.3;;;;;;;14.99;100;99124.3;;;;
2021/08/24 14:14:14;;;;;;;5.1;2.3;;;;;;;15.19;100;99132.89;;;;
2021/08/24 14:24:15;;;;;;;4.4;1.8;;;;;;;15.28;100;99133.66;;;;
2021/08/24 14:34:24;;;;;;;4.3;2;;;;;;;15.5;100;99141.59;;;;
2021/08/24 14:44:16;;;;;;;5.3;1.9;;;;;;;15.51;100;99132.34;;;;
2021/08/24 14:54:16;;;;;;;3.5;1.5;;;;;;;15.19;100;99151.9;;;;
2021/08/24 15:04:13;;;;;;;4.4;1.7;;;;;;;15.23;100;99161;;;;
2021/08/24 15:14:13;;;;;;;4.7;2.2;;;;;;;15.01;100;99156.56;;;;
2021/08/24 15:24:12;;;;;;;3.8;1.6;;;;;;;14.88;100;99173.84;;;;
2021/08/24 15:34:12;;;;;;;2.8;1.7;;;;;;;14.9;100;99185.96;;;;
2021/08/24 15:44:12;;;;;;;2.6;1.4;;;;;;;14.8;100;99189;;;;
2021/08/24 15:54:16;;;;;;;3.5;1.7;;;;;;;14.57;100;99193;;;;
2021/08/24 16:04:11;;;;;;;8.8;6.3;;;;;;;14.7;100;99188.53;;;;
2021/08/24 16:14:11;;;;;;;18.1;9.1;;;;;;;14.84;100;99187.25;;;;
2021/08/24 16:24:11;;;;;;;5.4;3.1;;;;;;;14.58;100;99189.95;;;;
2021/08/24 16:34:10;;;;;;;8.9;5.1;;;;;;;14.13;100;99191.3;;;;
2021/08/24 16:44:10;;;;;;;9.3;4.7;;;;;;;13.93;100;99195.41;;;;
2021/08/24 16:54:10;;;;;;;34.8;26.5;;;;;;;13.64;100;99197.06;;;;
2021/08/24 17:04:09;;;;;;;61.9;47;;;;;;;13.74;100;99202.2;;;;
2021/08/24 17:14:09;;;;;;;104.5;75.5;;;;;;;13.51;100;99202.25;;;;
2021/08/24 17:24:08;;;;;;;19.4;8.2;;;;;;;13.65;100;99218.4;;;;
2021/08/24 17:34:08;;;;;;;12.3;6.1;;;;;;;13.69;100;99223.99;;;;
2021/08/24 17:44:10;;;;;;;4.6;2;;;;;;;13.61;100;99220.13;;;;
2021/08/24 17:54:07;;;;;;;5.3;2.2;;;;;;;13.59;100;99225.07;;;;
2021/08/24 18:04:07;;;;;;;4.2;2.2;;;;;;;13.61;100;99230.96;;;;
2021/08/24 18:14:06;;;;;;;9.7;3;;;;;;;13.35;100;99236.25;;;;
2021/08/24 18:24:06;;;;;;;3.4;1.7;;;;;;;13.42;100;99246.64;;;;
2021/08/24 18:34:05;;;;;;;8;3.7;;;;;;;13.52;100;99251.8;;;;
2021/08/24 18:44:05;;;;;;;4.1;2.9;;;;;;;13.39;100;99258.09;;;;
2021/08/24 18:54:04;;;;;;;10.2;4.1;;;;;;;13.39;100;99253.48;;;;
2021/08/24 19:04:04;;;;;;;5.3;2.7;;;;;;;13.22;100;99261.5;;;;
2021/08/24 19:14:04;;;;;;;4.4;2.1;;;;;;;13.29;100;99261.86;;;;
2021/08/24 19:24:03;;;;;;;7;3.3;;;;;;;13.26;100;99254.33;;;;
2021/08/24 19:34:03;;;;;;;11.4;4.1;;;;;;;13.1;100;99256.63;;;;
2021/08/24 19:44:02;;;;;;;8.8;4.3;;;;;;;13.14;100;99245.18;;;;
2021/08/24 19:54:02;;;;;;;8.1;5;;;;;;;13.07;100;99243.68;;;;
2021/08/24 20:04:01;;;;;;;8;5.5;;;;;;;13.01;100;99244.11;;;;
2021/08/24 20:14:01;;;;;;;7;4.3;;;;;;;12.88;100;99240.34;;;;
2021/08/24 20:24:00;;;;;;;6.9;4.4;;;;;;;12.93;100;99248.34;;;;
2021/08/24 20:34:00;;;;;;;5.8;3.8;;;;;;;12.9;100;99243.55;;;;
2021/08/24 20:44:00;;;;;;;8;4.3;;;;;;;12.81;100;99231.84;;;;
2021/08/24 20:54:00;;;;;;;15.4;4.5;;;;;;;12.86;100;99239.05;;;;
2021/08/24 21:03:59;;;;;;;8.4;4.6;;;;;;;12.8;100;99235.67;;;;
2021/08/24 21:13:58;;;;;;;9.6;4.7;;;;;;;12.76;100;99218.45;;;;
2021/08/24 21:23:58;;;;;;;9.3;5.4;;;;;;;12.62;100;99225.81;;;;
2021/08/24 21:33:57;;;;;;;10.9;7.1;;;;;;;12.3;100;99229.48;;;;
2021/08/24 21:43:59;;;;;;;14.9;7.4;;;;;;;12;100;99233.62;;;;
2021/08/24 21:53:57;;;;;;;12.8;7.3;;;;;;;11.78;100;99235.4;;;;
2021/08/24 22:03:57;;;;;;;12.8;6.9;;;;;;;11.53;100;99228.53;;;;
2021/08/24 22:13:59;;;;;;;12.3;7.5;;;;;;;11.25;100;99229.57;;;;
2021/08/24 22:23:56;;;;;;;9.4;8.2;;;;;;;11.04;100;99216.42;;;;
2021/08/24 22:33:53;;;;;;;9.6;7.2;;;;;;;10.83;100;99219.77;;;;
2021/08/24 22:43:52;;;;;;;8.9;6.6;;;;;;;10.66;100;99201.39;;;;
2021/08/24 22:53:52;;;;;;;14.9;11.2;;;;;;;10.66;100;99212.17;;;;
2021/08/24 23:03:51;;;;;;;15;10.8;;;;;;;10.67;100;99205.7;;;;
2021/08/24 23:13:50;;;;;;;12.7;10.4;;;;;;;10.68;100;99196.52;;;;
2021/08/24 23:23:49;;;;;;;17.1;13;;;;;;;10.77;100;99194.75;;;;
2021/08/24 23:33:49;;;;;;;19.5;13.6;;;;;;;10.72;100;99202.94;;;;
2021/08/24 23:43:48;;;;;;;14;10.5;;;;;;;10.65;100;99190.92;;;;
2021/08/24 23:53:47;;;;;;;10.7;9.3;;;;;;;10.58;100;99189.4;;;;
